Weather History for Beach, ND

Change the Weather History Date:

Wednesday, June 26, 2013

  Actual Average (KGDV) Record (KGDV)
Temperature  
Mean Temperature 64 °F -  
Max Temperature 77 °F 76 °F 104 °F (2012)
Min Temperature 51 °F 51 °F 39 °F (2003)
Degree Days  
Heating Degree Days 1    
Growing Degree Days 14 (Base 50)    
Moisture  
Dew Point 57 °F    
Average Humidity 75    
Maximum Humidity 100    
Minimum Humidity 39    
Precipitation  
Precipitation 0.02 in - - ()
Sea Level Pressure  
Sea Level Pressure 29.90 in    
Wind  
Wind Speed 8 mph (WSW)    
Max Wind Speed 21 mph    
Max Gust Speed 28 mph    
Visibility 10 miles    
Events Rain    
Averages and records for this station are not official NWS values.
T = Trace of Precipitation, MM = Missing Value Source: NWS Daily Summary

Daily Weather History Graph

Daily Weather History Graph

Search for Another Location

Airport:

Trip Planner

Search our weather history database for the weather conditions in past years. The results will help you decide how hot, cold, wet, or windy it might be!

Date:

Astronomy

Jun. 26, 2013 Rise Set
Actual Time 5:02 AM MDT 8:54 PM MDT
Civil Twilight 4:23 AM MDT 9:34 PM MDT
Nautical Twilight 3:28 AM MDT 10:28 PM MDT
Astronomical Twilight 2:08 AM MDT 11:48 PM MDT
Moon 11:00 PM MDT (6/26) 9:13 AM MDT (6/26)
Length of Visible Light 17h 11m
Length of Day
15h 51m
Waning Gibbous, 85% of the Moon is Illuminated
Jun 26
Waning Gibbous
Jun 29
Last Quarter
Jul 8
New
Jul 15
First Quarter
Jul 22
Full

Hourly Weather History & Observations

Time (MDT) Temp. Dew Point Humidity Pressure Visibility Wind Dir Wind Speed Gust Speed Precip Events Conditions
12:15 AM 55.4 °F 55.4 °F 100% 29.82 in 10.0 mi Calm Calm - N/A   Clear
12:35 AM 55.4 °F 55.4 °F 100% 29.82 in 10.0 mi South 3.5 mph - N/A   Clear
12:55 AM 55.4 °F 55.4 °F 100% 29.82 in 10.0 mi South 3.5 mph - N/A   Clear
1:15 AM 53.6 °F 53.6 °F 100% 29.82 in 10.0 mi SSW 3.5 mph - N/A Rain Light Rain
1:35 AM 53.6 °F 53.6 °F 100% 29.82 in 10.0 mi SW 4.6 mph - N/A   Clear
1:55 AM 53.6 °F 53.6 °F 100% 29.82 in 10.0 mi SSW 3.5 mph - N/A   Clear
2:15 AM 53.6 °F 53.6 °F 100% 29.82 in 10.0 mi SE 3.5 mph - N/A   Clear
2:35 AM 53.6 °F 53.6 °F 100% 29.83 in 10.0 mi SSW 6.9 mph - N/A   Clear
2:55 AM 51.8 °F 51.8 °F 100% 29.83 in 10.0 mi South 3.5 mph - N/A   Clear
3:15 AM 53.6 °F 53.6 °F 100% 29.83 in 10.0 mi SSE 5.8 mph - N/A   Clear
3:35 AM 55.4 °F 53.6 °F 94% 29.83 in 10.0 mi SSW 3.5 mph - N/A   Clear
3:55 AM 53.6 °F 53.6 °F 100% 29.84 in 10.0 mi SSW 5.8 mph - N/A   Clear
4:15 AM 53.6 °F 53.6 °F 100% 29.84 in 10.0 mi South 5.8 mph - N/A   Clear
4:35 AM 53.6 °F 53.6 °F 100% 29.84 in 10.0 mi South 4.6 mph - N/A   Clear
4:55 AM 53.6 °F 53.6 °F 100% 29.85 in 10.0 mi South 3.5 mph - N/A   Clear
5:15 AM 55.4 °F 55.4 °F 100% 29.85 in 10.0 mi South 5.8 mph - N/A   Mostly Cloudy
5:35 AM 55.4 °F 55.4 °F 100% 29.85 in 10.0 mi South 3.5 mph - N/A   Overcast
5:55 AM 57.2 °F 57.2 °F 100% 29.85 in 10.0 mi South 3.5 mph - N/A   Overcast
6:15 AM 57.2 °F 57.2 °F 100% 29.85 in 10.0 mi SSE 3.5 mph - N/A   Overcast
6:35 AM 59.0 °F 59.0 °F 100% 29.85 in 10.0 mi South 4.6 mph - N/A   Scattered Clouds
6:55 AM 62.6 °F 60.8 °F 94% 29.84 in 10.0 mi SSE 5.8 mph - N/A   Mostly Cloudy
7:15 AM 62.6 °F 62.6 °F 100% 29.84 in 10.0 mi SSE 5.8 mph - N/A   Overcast
7:35 AM 64.4 °F 62.6 °F 94% 29.85 in 10.0 mi South 5.8 mph - N/A   Overcast
7:55 AM 64.4 °F 62.6 °F 94% 29.85 in 10.0 mi South 8.1 mph - N/A   Mostly Cloudy
8:15 AM 66.2 °F 62.6 °F 88% 29.85 in 10.0 mi SSE 9.2 mph - N/A   Partly Cloudy
8:55 AM 69.8 °F 62.6 °F 78% 29.86 in 10.0 mi SW 11.5 mph - N/A   Clear
9:15 AM 69.8 °F 60.8 °F 73% 29.86 in 10.0 mi WSW 10.4 mph - N/A   Clear
9:35 AM 69.8 °F 60.8 °F 73% 29.86 in 10.0 mi WSW 13.8 mph 18.4 mph N/A   Clear
9:55 AM 68.0 °F 60.8 °F 78% 29.88 in 10.0 mi West 15.0 mph 19.6 mph N/A   Clear
10:15 AM 68.0 °F 60.8 °F 78% 29.88 in 10.0 mi West 15.0 mph 20.7 mph N/A   Clear
10:35 AM 68.0 °F 60.8 °F 78% 29.88 in 10.0 mi WNW 12.7 mph 17.3 mph N/A   Clear
10:55 AM 69.8 °F 60.8 °F 73% 29.89 in 10.0 mi WNW 13.8 mph 20.7 mph N/A Rain Light Rain
11:15 AM 69.8 °F 62.6 °F 78% 29.89 in 10.0 mi West 17.3 mph - N/A   Clear
11:35 AM 73.4 °F 62.6 °F 69% 29.90 in 10.0 mi WNW 17.3 mph 23.0 mph N/A   Clear
11:55 AM 73.4 °F 57.2 °F 57% 29.91 in 10.0 mi WNW 18.4 mph 21.9 mph N/A Rain Light Rain
12:15 PM 73.4 °F 59.0 °F 61% 29.91 in 10.0 mi WNW 13.8 mph 21.9 mph N/A Rain Light Rain
12:35 PM 75.2 °F 57.2 °F 53% 29.91 in 10.0 mi WNW 18.4 mph 23.0 mph N/A   Clear
12:55 PM 75.2 °F 57.2 °F 53% 29.91 in 10.0 mi WNW 16.1 mph 21.9 mph N/A   Clear
1:15 PM 75.2 °F 57.2 °F 53% 29.92 in 10.0 mi WNW 19.6 mph 25.3 mph 0.01 in Rain Light Rain
1:35 PM 75.2 °F 55.4 °F 50% 29.92 in 10.0 mi WNW 18.4 mph 24.2 mph 0.02 in   Clear
1:55 PM 75.2 °F 55.4 °F 50% 29.93 in 10.0 mi West 18.4 mph 26.5 mph 0.02 in   Clear
2:15 PM 77.0 °F 55.4 °F 47% 29.93 in 10.0 mi West 16.1 mph 20.7 mph N/A   Partly Cloudy
2:35 PM 77.0 °F 55.4 °F 47% 29.93 in 10.0 mi West 18.4 mph 23.0 mph N/A   Partly Cloudy
2:55 PM 77.0 °F 53.6 °F 44% 29.93 in 10.0 mi WNW 19.6 mph 27.6 mph N/A   Clear
3:15 PM 77.0 °F 55.4 °F 47% 29.93 in 10.0 mi West 19.6 mph 25.3 mph N/A   Partly Cloudy
3:35 PM 77.0 °F 53.6 °F 44% 29.93 in 10.0 mi WNW 16.1 mph 26.5 mph N/A   Partly Cloudy
3:55 PM 77.0 °F 50.0 °F 39% 29.93 in 10.0 mi WNW 16.1 mph 25.3 mph N/A   Partly Cloudy
4:15 PM 77.0 °F 53.6 °F 44% 29.93 in 10.0 mi WNW 20.7 mph 27.6 mph N/A   Clear
4:35 PM 77.0 °F 53.6 °F 44% 29.93 in 9.0 mi NW 18.4 mph 26.5 mph N/A   Clear
4:55 PM 77.0 °F 53.6 °F 44% 29.94 in 10.0 mi WNW 19.6 mph 25.3 mph N/A   Clear
5:15 PM 77.0 °F 53.6 °F 44% 29.94 in 10.0 mi WNW 19.6 mph 27.6 mph N/A   Clear
5:35 PM 77.0 °F 51.8 °F 41% 29.94 in 10.0 mi NW 18.4 mph - N/A   Clear
5:55 PM 77.0 °F 53.6 °F 44% 29.94 in 10.0 mi WNW 17.3 mph 23.0 mph N/A   Clear
6:15 PM 77.0 °F 53.6 °F 44% 29.94 in 10.0 mi NW 17.3 mph 23.0 mph N/A   Clear
6:35 PM 77.0 °F 53.6 °F 44% 29.94 in 10.0 mi NW 13.8 mph 20.7 mph N/A   Clear
6:55 PM 75.2 °F 53.6 °F 47% 29.94 in 10.0 mi NW 10.4 mph - N/A   Clear
7:15 PM 73.4 °F 55.4 °F 53% 29.95 in 10.0 mi NW 10.4 mph - N/A   Clear
7:35 PM 71.6 °F 55.4 °F 57% 29.95 in 10.0 mi NW 9.2 mph - N/A   Clear
7:55 PM 71.6 °F 55.4 °F 57% 29.96 in 10.0 mi NW 9.2 mph - N/A   Clear
8:15 PM 69.8 °F 57.2 °F 64% 29.96 in 10.0 mi WNW 4.6 mph - N/A   Clear
8:35 PM 66.2 °F 57.2 °F 73% 29.97 in 10.0 mi NW 4.6 mph - N/A   Scattered Clouds
8:55 PM 66.2 °F 59.0 °F 78% 29.98 in 10.0 mi NNW 6.9 mph - N/A   Mostly Cloudy
9:15 PM 64.4 °F 59.0 °F 83% 29.99 in 10.0 mi NNW 6.9 mph - N/A   Overcast
9:35 PM 64.4 °F 59.0 °F 83% 30.01 in 10.0 mi NW 4.6 mph - N/A   Overcast
9:55 PM 62.6 °F 59.0 °F 88% 30.01 in 10.0 mi NW 5.8 mph - N/A   Mostly Cloudy
10:15 PM 62.6 °F 57.2 °F 82% 30.01 in 10.0 mi WNW 4.6 mph - N/A   Scattered Clouds
10:35 PM 60.8 °F 57.2 °F 88% 30.02 in 10.0 mi West 3.5 mph - N/A   Clear
10:55 PM 60.8 °F 55.4 °F 82% 30.02 in 10.0 mi Calm Calm - N/A   Clear
11:15 PM 57.2 °F 55.4 °F 94% 30.03 in 10.0 mi South 5.8 mph - N/A   Clear
11:35 PM 55.4 °F 55.4 °F 100% 30.03 in 10.0 mi South 4.6 mph - N/A   Clear